createdAt,value
2023-03-28T00:01:34.856Z,101034.44
2023-03-28T00:04:05.777Z,101041.09
2023-03-28T00:06:36.242Z,101033.72
2023-03-28T00:09:06.575Z,101026.81
2023-03-28T00:11:37.521Z,101034.44
2023-03-28T00:14:09.708Z,101037.25
2023-03-28T00:16:42.011Z,101037.25
2023-03-28T00:19:16.144Z,101040.41
2023-03-28T00:21:49.970Z,101036.41
2023-03-28T00:24:23.340Z,101029.16
2023-03-28T00:26:55.188Z,101031.53
2023-03-28T00:29:34.250Z,101029.06
2023-03-28T00:32:04.914Z,101031.66
2023-03-28T00:34:35.570Z,101026.16
2023-03-28T00:37:05.931Z,101025.47
2023-03-28T00:39:35.962Z,101034.13
2023-03-28T00:42:06.525Z,101031.66
2023-03-28T00:44:54.501Z,101025.94
2023-03-28T00:47:44.308Z,101025.47
2023-03-28T00:50:22.210Z,101030.97
2023-03-28T00:52:59.591Z,101022.09
2023-03-28T00:55:36.055Z,101026.75
2023-03-28T00:58:12.209Z,101025.47
2023-03-28T01:00:47.400Z,101022.19
2023-03-28T01:03:20.757Z,101026.50
2023-03-28T01:05:51.484Z,101022.06
2023-03-28T01:08:26.898Z,101018.09
2023-03-28T01:10:57.981Z,101020.88
2023-03-28T01:13:33.078Z,101030.94
2023-03-28T01:16:07.839Z,101014.91
2023-03-28T01:18:41.921Z,101015.28
2023-03-28T01:21:55.467Z,101026.03
2023-03-28T01:25:24.573Z,101021.94
2023-03-28T01:28:02.688Z,101027.06
2023-03-28T01:31:19.950Z,101021.94
2023-03-28T01:34:32.778Z,101023.09
2023-03-28T01:37:33.966Z,101023.91
2023-03-28T01:40:28.018Z,101023.91
2023-03-28T01:43:15.577Z,101021.09
2023-03-28T01:45:59.005Z,101021.94
2023-03-28T01:48:44.617Z,101017.94
2023-03-28T01:51:26.834Z,101019.56
2023-03-28T01:54:07.963Z,101028.00
2023-03-28T01:56:44.662Z,101020.06
2023-03-28T01:59:22.145Z,101021.69
2023-03-28T02:02:03.068Z,101023.69
2023-03-28T02:04:36.623Z,101031.63
2023-03-28T02:07:09.222Z,101021.22
2023-03-28T02:09:45.678Z,101036.41
2023-03-28T02:12:22.608Z,101036.41
2023-03-28T02:14:56.394Z,101037.25
2023-03-28T02:17:30.617Z,101040.06
2023-03-28T02:20:09.263Z,101049.28
2023-03-28T02:22:49.603Z,101040.38
2023-03-28T02:25:22.723Z,101043.19
2023-03-28T02:27:57.970Z,101037.56
2023-03-28T02:30:29.061Z,101037.94
2023-03-28T02:33:03.097Z,101033.97
2023-03-28T02:35:59.136Z,101031.16
2023-03-28T02:38:42.813Z,101027.88
2023-03-28T02:41:29.465Z,101034.66
2023-03-28T02:44:23.019Z,101038.63
2023-03-28T02:47:11.832Z,101042.97
2023-03-28T02:50:05.062Z,101047.28
2023-03-28T02:52:52.475Z,101048.47
2023-03-28T02:55:33.674Z,101048.47
2023-03-28T02:58:12.618Z,101050.91
2023-03-28T03:00:43.270Z,101058.88
2023-03-28T03:03:14.355Z,101063.66
2023-03-28T03:05:44.379Z,101063.66
2023-03-28T03:08:14.909Z,101070.91
2023-03-28T03:10:45.103Z,101070.91
2023-03-28T03:13:18.727Z,101082.94
2023-03-28T03:15:49.911Z,101082.59
2023-03-28T03:18:20.428Z,101086.94
2023-03-28T03:20:50.635Z,101077.31
2023-03-28T03:23:21.432Z,101084.94
2023-03-28T03:25:52.216Z,101073.72
2023-03-28T03:28:24.600Z,101079.31
2023-03-28T03:30:55.623Z,101072.91
2023-03-28T03:33:25.436Z,101067.97
2023-03-28T03:35:55.926Z,101057.13
2023-03-28T03:38:26.381Z,101053.47
2023-03-28T03:40:56.979Z,101052.66
2023-03-28T03:43:30.015Z,101059.44
2023-03-28T03:46:01.396Z,101055.81
2023-03-28T03:48:31.840Z,101057.81
2023-03-28T03:51:02.260Z,101056.97
2023-03-28T03:53:32.857Z,101055.00
2023-03-28T03:56:04.343Z,101063.41
2023-03-28T03:58:36.140Z,101063.41
2023-03-28T04:01:06.535Z,101067.03
2023-03-28T04:03:37.079Z,101063.88
2023-03-28T04:06:08.684Z,101068.34
2023-03-28T04:08:39.460Z,101065.97
2023-03-28T04:11:11.104Z,101068.09
2023-03-28T04:13:43.581Z,101081.44
2023-03-28T04:16:15.901Z,101086.69
2023-03-28T04:18:51.200Z,101081.56
2023-03-28T04:21:27.918Z,101086.00
2023-03-28T04:24:02.176Z,101089.28
2023-03-28T04:26:35.996Z,101082.16
2023-03-28T04:29:09.774Z,101088.25
2023-03-28T04:31:40.908Z,101090.69
2023-03-28T04:34:14.081Z,101096.81
2023-03-28T04:36:45.426Z,101108.53
2023-03-28T04:39:16.050Z,101112.94
2023-03-28T04:41:47.763Z,101110.59
2023-03-28T04:44:20.157Z,101106.31
2023-03-28T04:46:51.309Z,101107.91
2023-03-28T04:49:22.202Z,101105.94
2023-03-28T04:51:52.374Z,101109.22
2023-03-28T04:54:22.547Z,101106.06
2023-03-28T04:56:53.180Z,101109.34
2023-03-28T04:59:25.186Z,101109.81
2023-03-28T05:01:55.536Z,101104.22
2023-03-28T05:04:27.001Z,101128.75
2023-03-28T05:06:58.151Z,101126.41
2023-03-28T05:09:29.205Z,101135.31
2023-03-28T05:11:59.934Z,101148.31
2023-03-28T05:14:32.253Z,101150.75
2023-03-28T05:17:02.406Z,101142.00
2023-03-28T05:19:32.080Z,101146.09
2023-03-28T05:22:02.172Z,101146.09
2023-03-28T05:24:33.322Z,101150.53
2023-03-28T05:27:04.055Z,101147.84
2023-03-28T05:29:36.730Z,101157.56
2023-03-28T05:32:07.248Z,101162.00
2023-03-28T05:34:37.678Z,101172.44
2023-03-28T05:37:08.154Z,101185.66
2023-03-28T05:39:38.706Z,101185.66
2023-03-28T05:42:09.395Z,101186.00
2023-03-28T05:44:41.818Z,101186.47
2023-03-28T05:47:12.149Z,101192.22
2023-03-28T05:49:42.171Z,101203.56
2023-03-28T05:52:12.319Z,101202.53
2023-03-28T05:54:50.573Z,101208.72
2023-03-28T05:57:22.567Z,101199.25
2023-03-28T05:59:54.839Z,101201.00
2023-03-28T06:02:26.165Z,101205.59
2023-03-28T06:04:56.767Z,101210.16
2023-03-28T06:07:39.269Z,101214.38
2023-03-28T06:10:15.160Z,101201.75
2023-03-28T06:12:45.737Z,101197.50
2023-03-28T06:15:18.014Z,101207.00
2023-03-28T06:17:48.409Z,101210.50
2023-03-28T06:20:19.117Z,101206.41
2023-03-28T06:22:49.293Z,101209.44
2023-03-28T06:25:19.433Z,101209.34
2023-03-28T06:27:49.869Z,101207.53
2023-03-28T06:30:22.669Z,101203.41
2023-03-28T06:32:53.381Z,101207.72
2023-03-28T06:35:23.770Z,101202.31
2023-03-28T06:37:53.656Z,101208.59
2023-03-28T06:40:24.158Z,101209.59
2023-03-28T06:42:55.088Z,101208.28
2023-03-28T06:45:27.287Z,101216.63
2023-03-28T06:47:57.456Z,101220.91
2023-03-28T06:50:27.768Z,101228.03
2023-03-28T06:52:58.187Z,101226.66
2023-03-28T06:55:28.354Z,101219.31
2023-03-28T06:57:58.845Z,101215.97
2023-03-28T07:00:31.192Z,101216.25
2023-03-28T07:03:01.587Z,101210.06
2023-03-28T07:05:32.551Z,101206.25
2023-03-28T07:08:02.264Z,101208.44
2023-03-28T07:10:32.805Z,101204.63
2023-03-28T07:13:03.777Z,101197.50
2023-03-28T07:15:36.698Z,101189.66
2023-03-28T07:18:11.809Z,101199.09
2023-03-28T07:20:44.185Z,101198.94
2023-03-28T07:23:15.758Z,101194.63
2023-03-28T07:25:46.412Z,101184.69
2023-03-28T07:28:16.920Z,101196.16
2023-03-28T07:30:49.186Z,101182.97
2023-03-28T07:33:25.891Z,101190.44
2023-03-28T07:36:00.993Z,101193.41
2023-03-28T07:38:31.652Z,101201.22
2023-03-28T07:41:04.207Z,101199.31
2023-03-28T07:43:34.856Z,101196.31
2023-03-28T07:46:09.762Z,101194.06
2023-03-28T07:48:41.448Z,101197.03
2023-03-28T07:51:14.279Z,101191.91
2023-03-28T07:53:44.780Z,101192.06
2023-03-28T07:56:15.182Z,101185.72
2023-03-28T07:58:45.378Z,101189.13
2023-03-28T08:01:19.111Z,101187.22
2023-03-28T08:03:49.120Z,101193.06
2023-03-28T08:06:31.713Z,101191.16
2023-03-28T08:09:03.240Z,101192.47
2023-03-28T08:11:33.481Z,101190.94
2023-03-28T08:14:04.067Z,101182.47
2023-03-28T08:16:41.287Z,101185.75
2023-03-28T08:19:12.895Z,101183.34
2023-03-28T08:21:42.670Z,101189.06
2023-03-28T08:24:17.506Z,101193.59
2023-03-28T08:26:52.701Z,101191.69
2023-03-28T08:29:23.608Z,101184.13
2023-03-28T08:31:56.585Z,101193.16
2023-03-28T08:34:26.685Z,101187.22
2023-03-28T08:36:58.031Z,101171.91
2023-03-28T08:39:28.423Z,101173.59
2023-03-28T08:42:31.516Z,101164.78
2023-03-28T08:45:40.994Z,101167.69
2023-03-28T08:48:23.118Z,101167.31
2023-03-28T08:51:01.801Z,101167.38
2023-03-28T08:53:39.298Z,101160.16
2023-03-28T08:56:11.739Z,101155.34
2023-03-28T08:58:52.297Z,101161.09
2023-03-28T09:01:23.896Z,101153.47
2023-03-28T09:03:58.651Z,101158.81
2023-03-28T09:06:38.477Z,101162.09
2023-03-28T09:09:38.673Z,101155.69
2023-03-28T09:12:31.270Z,101156.53
2023-03-28T09:15:32.830Z,101159.38
2023-03-28T09:18:34.314Z,101170.38
2023-03-28T09:21:20.240Z,101172.47
2023-03-28T09:24:16.813Z,101159.19
2023-03-28T09:26:56.761Z,101170.97
2023-03-28T09:29:29.173Z,101161.72
2023-03-28T09:32:05.343Z,101152.88
2023-03-28T09:34:43.072Z,101155.75
2023-03-28T09:37:31.241Z,101160.25
2023-03-28T09:40:14.761Z,101155.44
2023-03-28T09:42:58.293Z,101152.66
2023-03-28T09:45:46.082Z,101138.53
2023-03-28T09:48:24.853Z,101123.59
2023-03-28T09:50:56.333Z,101115.09
2023-03-28T09:53:33.144Z,101120.34
2023-03-28T09:56:08.570Z,101116.72
2023-03-28T09:58:53.526Z,101107.00
2023-03-28T10:01:42.589Z,101107.81
2023-03-28T10:04:18.185Z,101104.19
2023-03-28T10:06:50.668Z,101109.44
2023-03-28T10:09:27.388Z,101102.16
2023-03-28T10:12:00.124Z,101090.84
2023-03-28T10:14:37.067Z,101096.56
2023-03-28T10:17:14.674Z,101094.16
2023-03-28T10:19:48.293Z,101088.09
2023-03-28T10:22:26.037Z,101095.38
2023-03-28T10:24:59.206Z,101095.38
2023-03-28T10:27:33.248Z,101090.97
2023-03-28T10:30:19.804Z,101095.03
2023-03-28T10:33:22.797Z,101089.34
2023-03-28T10:36:01.138Z,101098.66
2023-03-28T10:38:38.520Z,101096.66
2023-03-28T10:41:22.293Z,101096.25
2023-03-28T10:43:55.080Z,101094.63
2023-03-28T10:46:31.134Z,101082.91
2023-03-28T10:49:08.001Z,101090.59
2023-03-28T10:51:42.481Z,101087.75
2023-03-28T10:54:48.704Z,101069.09
2023-03-28T10:57:34.621Z,101072.34
2023-03-28T11:00:13.656Z,101074.38
2023-03-28T11:03:17.428Z,101063.41
2023-03-28T11:06:05.772Z,101065.81
2023-03-28T11:08:56.566Z,101074.72
2023-03-28T11:12:08.377Z,101067.00
2023-03-28T11:14:59.506Z,101071.03
2023-03-28T11:17:46.099Z,101075.09
2023-03-28T11:20:41.128Z,101075.91
2023-03-28T11:23:44.925Z,101083.97
2023-03-28T11:26:19.572Z,101091.66
2023-03-28T11:29:11.320Z,101081.53
2023-03-28T11:31:50.425Z,101085.56
2023-03-28T11:34:29.128Z,101074.59
2023-03-28T11:37:07.803Z,101077.03
2023-03-28T11:39:45.168Z,101077.03
2023-03-28T11:42:25.243Z,101081.06
2023-03-28T11:45:08.136Z,101071.69
2023-03-28T11:47:47.650Z,101085.06
2023-03-28T11:50:25.156Z,101078.94
2023-03-28T11:53:03.832Z,101068.41
2023-03-28T11:55:41.976Z,101082.56
2023-03-28T11:58:23.734Z,101073.69
2023-03-28T12:01:05.842Z,101073.25
2023-03-28T12:03:59.441Z,101069.19
2023-03-28T12:06:44.025Z,101065.53
2023-03-28T12:09:34.072Z,101062.69
2023-03-28T12:12:12.620Z,101069.56
2023-03-28T12:14:55.017Z,101051.31
2023-03-28T12:17:31.196Z,101059.78
2023-03-28T12:20:07.350Z,101059.38
2023-03-28T12:22:45.367Z,101061.41
2023-03-28T12:25:29.065Z,101061.78
2023-03-28T12:28:12.084Z,101043.09
2023-03-28T12:30:50.456Z,101046.34
2023-03-28T12:33:38.328Z,101043.06
2023-03-28T12:36:24.611Z,101033.72
2023-03-28T12:39:02.365Z,101037.75
2023-03-28T12:41:38.350Z,101040.19
2023-03-28T12:44:15.290Z,101033.69
2023-03-28T12:46:53.161Z,101044.97
2023-03-28T12:49:35.180Z,101031.22
2023-03-28T12:52:15.755Z,101034.41
2023-03-28T12:55:02.182Z,101025.44
2023-03-28T12:57:49.026Z,101022.13
2023-03-28T13:00:29.307Z,101026.16
2023-03-28T13:03:24.807Z,101024.09
2023-03-28T13:06:09.414Z,101019.59
2023-03-28T13:09:11.941Z,101020.81
2023-03-28T13:11:56.457Z,101011.06
2023-03-28T13:14:41.388Z,101016.28
2023-03-28T13:17:25.160Z,101021.47
2023-03-28T13:19:57.767Z,101012.94
2023-03-28T13:22:36.427Z,101016.13
2023-03-28T13:25:32.793Z,101014.47
2023-03-28T13:28:24.929Z,101009.53
2023-03-28T13:31:15.089Z,101008.69
2023-03-28T13:33:51.820Z,101013.13
2023-03-28T13:36:27.657Z,101020.34
2023-03-28T13:39:23.822Z,101021.94
2023-03-28T13:42:05.368Z,101023.53
2023-03-28T13:44:50.071Z,101029.16
2023-03-28T13:47:33.411Z,101021.38
2023-03-28T13:50:16.877Z,101031.06
2023-03-28T13:52:47.758Z,101027.38
2023-03-28T13:55:25.981Z,101018.84
2023-03-28T13:58:02.900Z,101017.22
2023-03-28T14:00:33.237Z,101018.78
2023-03-28T14:03:08.477Z,101020.00
2023-03-28T14:05:48.998Z,101013.50
2023-03-28T14:08:27.839Z,101020.72
2023-03-28T14:10:59.591Z,101020.66
2023-03-28T14:13:32.481Z,101020.22
2023-03-28T14:16:03.231Z,101031.50
2023-03-28T14:18:40.059Z,101028.25
2023-03-28T14:21:11.554Z,101017.31
2023-03-28T14:23:50.713Z,101019.34
2023-03-28T14:26:24.348Z,101023.34
2023-03-28T14:29:04.948Z,101021.28
2023-03-28T14:31:37.910Z,101014.78
2023-03-28T14:34:21.626Z,101014.69
2023-03-28T14:37:04.129Z,101018.31
2023-03-28T14:39:37.611Z,101024.34
2023-03-28T14:42:12.974Z,101025.53
2023-03-28T14:44:47.137Z,101029.13
2023-03-28T14:47:22.846Z,101031.13
2023-03-28T14:49:54.182Z,101023.84
2023-03-28T14:52:32.020Z,101026.66
2023-03-28T14:55:04.731Z,101017.38
2023-03-28T14:57:38.377Z,101025.06
2023-03-28T15:00:25.414Z,101017.31
2023-03-28T15:02:57.389Z,101015.22
2023-03-28T15:05:27.519Z,101017.25
2023-03-28T15:08:04.172Z,101017.63
2023-03-28T15:10:35.844Z,101013.53
2023-03-28T15:13:17.378Z,101017.56
2023-03-28T15:15:51.523Z,101017.97
2023-03-28T15:18:28.964Z,101017.97
2023-03-28T15:21:04.771Z,101028.44
2023-03-28T15:23:40.230Z,101025.19
2023-03-28T15:26:26.049Z,101028.38
2023-03-28T15:28:58.955Z,101031.22
2023-03-28T15:31:32.011Z,101032.41
2023-03-28T15:34:02.814Z,101029.97
2023-03-28T15:36:35.243Z,101029.16
2023-03-28T15:39:21.123Z,101030.34
2023-03-28T15:41:56.578Z,101031.53
2023-03-28T15:44:33.494Z,101044.84
2023-03-28T15:47:12.631Z,101043.59
2023-03-28T15:49:42.945Z,101044.00
2023-03-28T15:52:22.886Z,101038.69
2023-03-28T15:54:56.823Z,101033.44
2023-03-28T15:57:32.858Z,101035.47
2023-03-28T16:00:04.725Z,101031.00
2023-03-28T16:02:37.844Z,101022.53
2023-03-28T16:05:28.055Z,101021.69
2023-03-28T16:07:58.641Z,101035.38
2023-03-28T16:10:30.488Z,101022.47
2023-03-28T16:13:01.635Z,101030.09
2023-03-28T16:15:33.208Z,101038.59
2023-03-28T16:18:05.034Z,101043.78
2023-03-28T16:20:40.486Z,101042.16
2023-03-28T16:23:11.654Z,101046.16
2023-03-28T16:25:42.557Z,101048.59
2023-03-28T16:28:20.635Z,101052.59
2023-03-28T16:30:50.991Z,101051.34
2023-03-28T16:33:24.946Z,101044.88
2023-03-28T16:35:55.747Z,101053.72
2023-03-28T16:38:27.247Z,101050.47
2023-03-28T16:40:57.721Z,101052.03
2023-03-28T16:43:28.340Z,101055.22
2023-03-28T16:45:58.942Z,101049.97
2023-03-28T16:48:34.761Z,101056.78
2023-03-28T16:51:05.517Z,101059.19
2023-03-28T16:53:35.993Z,101066.00
2023-03-28T16:56:09.352Z,101071.25
2023-03-28T16:58:40.061Z,101073.25
2023-03-28T17:01:12.574Z,101070.81
2023-03-28T17:03:45.568Z,101075.97
2023-03-28T17:06:17.425Z,101076.34
2023-03-28T17:08:48.495Z,101077.53
2023-03-28T17:11:20.985Z,101077.91
2023-03-28T17:13:54.879Z,101086.75
2023-03-28T17:16:26.299Z,101094.78
2023-03-28T17:18:58.266Z,101088.69
2023-03-28T17:21:28.141Z,101092.72
2023-03-28T17:23:58.517Z,101085.44
2023-03-28T17:26:29.111Z,101095.44
2023-03-28T17:28:59.354Z,101093.84
2023-03-28T17:31:29.884Z,101088.94
2023-03-28T17:34:02.615Z,101092.94
2023-03-28T17:36:33.536Z,101091.69
2023-03-28T17:39:05.022Z,101092.88
2023-03-28T17:41:34.784Z,101097.28
2023-03-28T17:44:07.204Z,101095.66
2023-03-28T17:46:52.591Z,101100.00
2023-03-28T17:49:25.384Z,101105.22
2023-03-28T17:51:57.581Z,101101.56
2023-03-28T17:54:28.339Z,101107.94
2023-03-28T17:56:59.630Z,101108.34
2023-03-28T17:59:30.241Z,101120.00
2023-03-28T18:02:00.998Z,101112.72
2023-03-28T18:04:51.619Z,101115.94
2023-03-28T18:07:22.222Z,101119.50
2023-03-28T18:09:52.504Z,101123.50
2023-03-28T18:12:23.343Z,101126.69
2023-03-28T18:14:53.125Z,101129.88
2023-03-28T18:17:24.536Z,101128.25
2023-03-28T18:19:56.870Z,101132.25
2023-03-28T18:22:27.880Z,101122.53
2023-03-28T18:24:58.594Z,101125.72
2023-03-28T18:27:30.534Z,101122.06
2023-03-28T18:30:07.370Z,101130.91
2023-03-28T18:32:39.909Z,101121.66
2023-03-28T18:35:18.568Z,101130.47
2023-03-28T18:37:53.521Z,101133.66
2023-03-28T18:40:30.086Z,101128.41
2023-03-28T18:43:00.244Z,101130.75
2023-03-28T18:45:31.401Z,101123.47
2023-03-28T18:48:01.673Z,101119.00
2023-03-28T18:50:34.318Z,101123.00
2023-03-28T18:53:05.524Z,101119.72
2023-03-28T18:55:35.374Z,101121.75
2023-03-28T18:58:06.960Z,101131.41
2023-03-28T19:00:38.869Z,101126.13
2023-03-28T19:03:10.242Z,101122.84
2023-03-28T19:05:42.743Z,101129.31
2023-03-28T19:08:14.677Z,101128.03
2023-03-28T19:10:48.763Z,101115.97
2023-03-28T19:13:19.346Z,101124.78
2023-03-28T19:15:49.732Z,101130.78
2023-03-28T19:18:20.320Z,101118.69
2023-03-28T19:20:57.369Z,101122.69
2023-03-28T19:23:31.033Z,101121.06
2023-03-28T19:26:01.767Z,101122.25
2023-03-28T19:28:32.496Z,101113.34
2023-03-28T19:31:05.675Z,101116.53
2023-03-28T19:33:36.190Z,101103.63
2023-03-28T19:36:10.496Z,101112.00
2023-03-28T19:38:42.614Z,101105.44
2023-03-28T19:41:20.911Z,101103.81
2023-03-28T19:43:51.902Z,101096.91
2023-03-28T19:46:33.697Z,101086.00
2023-03-28T19:49:08.684Z,101084.72
2023-03-28T19:51:40.808Z,101079.47
2023-03-28T19:54:11.362Z,101083.47
2023-03-28T19:56:42.410Z,101073.75
2023-03-28T19:59:13.007Z,101077.75
2023-03-28T20:01:43.702Z,101076.84
2023-03-28T20:04:14.813Z,101073.56
2023-03-28T20:06:49.148Z,101077.16
2023-03-28T20:09:19.602Z,101075.06
2023-03-28T20:11:51.152Z,101072.16
2023-03-28T20:14:22.423Z,101072.50
2023-03-28T20:16:52.444Z,101068.84
2023-03-28T20:19:23.615Z,101063.59
2023-03-28T20:21:55.990Z,101059.94
2023-03-28T20:24:26.297Z,101059.13
2023-03-28T20:26:56.401Z,101057.50
2023-03-28T20:29:27.598Z,101054.69
2023-03-28T20:31:58.754Z,101050.22
2023-03-28T20:34:29.653Z,101049.41
2023-03-28T20:37:02.676Z,101046.94
2023-03-28T20:39:34.604Z,101045.31
2023-03-28T20:42:05.940Z,101040.84
2023-03-28T20:44:38.633Z,101038.88
2023-03-28T20:47:10.989Z,101034.41
2023-03-28T20:49:46.541Z,101030.41
2023-03-28T20:52:19.409Z,101032.41
2023-03-28T20:54:50.655Z,101035.22
2023-03-28T20:57:22.054Z,101033.25
2023-03-28T20:59:55.460Z,101038.03
2023-03-28T21:02:25.970Z,101038.88
2023-03-28T21:04:56.654Z,101040.06
2023-03-28T21:07:29.226Z,101042.06
2023-03-28T21:09:59.947Z,101041.63
2023-03-28T21:12:30.342Z,101035.53
2023-03-28T21:15:00.821Z,101033.44
2023-03-28T21:17:31.192Z,101037.00
2023-03-28T21:20:04.185Z,101033.72
2023-03-28T21:22:38.452Z,101037.25
2023-03-28T21:25:10.930Z,101033.19
2023-03-28T21:27:42.984Z,101037.56
2023-03-28T21:30:14.821Z,101029.84
2023-03-28T21:32:45.658Z,101025.38
2023-03-28T21:35:17.114Z,101022.09
2023-03-28T21:37:49.951Z,101012.78
2023-03-28T21:40:20.432Z,101014.66
2023-03-28T21:42:50.960Z,101012.94
2023-03-28T21:45:21.534Z,101005.22
2023-03-28T21:47:52.725Z,100997.53
2023-03-28T21:50:24.058Z,100997.41
2023-03-28T21:52:57.190Z,100999.81
2023-03-28T21:55:29.232Z,100990.06
2023-03-28T21:57:59.234Z,100987.13
2023-03-28T22:00:30.208Z,100981.41
2023-03-28T22:03:01.028Z,100981.34
2023-03-28T22:05:31.697Z,100966.78
2023-03-28T22:08:05.462Z,100964.34
2023-03-28T22:10:36.192Z,100968.72
2023-03-28T22:13:07.473Z,100969.06
2023-03-28T22:15:37.916Z,100965.78
2023-03-28T22:18:09.549Z,100961.72
2023-03-28T22:20:44.056Z,100962.09
2023-03-28T22:23:15.963Z,100964.06
2023-03-28T22:25:47.065Z,100960.00
2023-03-28T22:28:17.220Z,100964.81
2023-03-28T22:30:47.786Z,100961.56
2023-03-28T22:33:19.771Z,100965.16
2023-03-28T22:35:50.505Z,100962.72
2023-03-28T22:38:22.903Z,100963.91
2023-03-28T22:40:53.634Z,100956.28
2023-03-28T22:43:25.644Z,100957.91
2023-03-28T22:45:55.955Z,100955.47
2023-03-28T22:48:30.526Z,100960.28
2023-03-28T22:51:02.164Z,100972.72
2023-03-28T22:53:34.548Z,100973.53
2023-03-28T22:56:05.964Z,100965.47
2023-03-28T22:58:36.768Z,100967.44
2023-03-28T23:01:08.164Z,100963.81
2023-03-28T23:03:38.846Z,100965.00
2023-03-28T23:06:10.144Z,100964.19
2023-03-28T23:08:42.814Z,100969.00
2023-03-28T23:11:13.688Z,100964.53
2023-03-28T23:13:43.734Z,100966.53
2023-03-28T23:16:14.831Z,100969.34
2023-03-28T23:18:45.447Z,100974.63
2023-03-28T23:21:16.176Z,100975.44
2023-03-28T23:23:48.935Z,100975.06
2023-03-28T23:26:22.508Z,100971.88
2023-03-28T23:28:52.565Z,100965.47
2023-03-28T23:31:23.208Z,100962.63
2023-03-28T23:33:53.740Z,100971.88
2023-03-28T23:36:26.519Z,100967.44
2023-03-28T23:38:58.784Z,100969.91
2023-03-28T23:41:29.220Z,100978.34
2023-03-28T23:43:59.698Z,100966.25
2023-03-28T23:46:30.105Z,100973.53
2023-03-28T23:49:00.651Z,100972.72
2023-03-28T23:51:31.773Z,100965.47
2023-03-28T23:54:04.334Z,100959.81
2023-03-28T23:56:34.878Z,100960.63
2023-03-28T23:59:05.608Z,100959.81
